createdAt,value
2018-12-09T00:01:13.945Z,1.50
2018-12-09T00:03:17.107Z,2.33
2018-12-09T00:05:20.252Z,1.20
2018-12-09T00:07:23.482Z,1.97
2018-12-09T00:09:27.446Z,2.03
2018-12-09T00:11:30.777Z,1.87
2018-12-09T00:13:34.228Z,2.13
2018-12-09T00:15:37.661Z,2.07
2018-12-09T00:17:40.897Z,1.73
2018-12-09T00:19:45.383Z,1.90
2018-12-09T00:21:48.556Z,1.90
2018-12-09T00:23:51.791Z,1.60
2018-12-09T00:25:54.947Z,2.77
2018-12-09T00:27:58.965Z,1.93
2018-12-09T00:30:02.514Z,2.10
2018-12-09T00:32:06.317Z,2.03
2018-12-09T00:34:09.694Z,2.00
2018-12-09T00:36:12.927Z,1.50
2018-12-09T00:38:16.089Z,2.37
2018-12-09T00:40:19.570Z,1.93
2018-12-09T00:42:22.803Z,1.90
2018-12-09T00:44:26.686Z,1.60
2018-12-09T00:46:30.402Z,1.70
2018-12-09T00:48:33.863Z,1.97
2018-12-09T00:50:37.618Z,2.13
2018-12-09T00:52:40.859Z,2.00
2018-12-09T00:54:44.072Z,2.10
2018-12-09T00:56:47.211Z,1.37
2018-12-09T00:58:50.465Z,1.77
2018-12-09T01:00:54.010Z,1.73
2018-12-09T01:02:57.955Z,2.53
2018-12-09T01:05:01.431Z,1.93
2018-12-09T01:07:05.023Z,1.50
2018-12-09T01:09:08.783Z,1.87
2018-12-09T01:11:11.958Z,2.03
2018-12-09T01:13:15.094Z,1.87
2018-12-09T01:15:18.335Z,2.13
2018-12-09T01:17:21.233Z,2.23
2018-12-09T01:19:24.351Z,2.10
2018-12-09T01:21:30.839Z,1.70
2018-12-09T01:23:34.255Z,2.07
2018-12-09T01:25:37.702Z,2.33
2018-12-09T01:27:41.167Z,1.90
2018-12-09T01:29:44.378Z,2.40
2018-12-09T01:31:47.788Z,1.70
2018-12-09T01:33:51.306Z,2.13
2018-12-09T01:35:54.846Z,1.83
2018-12-09T01:37:58.951Z,2.03
2018-12-09T01:40:02.609Z,2.17
2018-12-09T01:42:06.212Z,2.23
2018-12-09T01:44:09.542Z,1.97
2018-12-09T01:46:12.860Z,2.37
2018-12-09T01:48:16.070Z,2.10
2018-12-09T01:50:19.338Z,2.10
2018-12-09T01:52:22.706Z,2.10
2018-12-09T01:54:25.961Z,2.97
2018-12-09T01:56:29.953Z,2.13
2018-12-09T01:58:33.478Z,2.47
2018-12-09T02:00:37.166Z,2.70
2018-12-09T02:02:40.542Z,2.33
2018-12-09T02:04:44.203Z,2.20
2018-12-09T02:06:47.418Z,2.50
2018-12-09T02:08:50.799Z,2.17
2018-12-09T02:10:54.028Z,2.67
2018-12-09T02:12:58.080Z,2.30
2018-12-09T02:15:01.438Z,2.07
2018-12-09T02:17:05.739Z,1.97
2018-12-09T02:19:17.697Z,2.00
2018-12-09T02:21:20.995Z,1.73
2018-12-09T02:23:24.890Z,2.13
2018-12-09T02:25:29.124Z,2.13
2018-12-09T02:27:32.518Z,2.23
2018-12-09T02:29:36.566Z,2.50
2018-12-09T02:31:39.997Z,2.37
2018-12-09T02:33:43.258Z,2.43
2018-12-09T02:35:46.702Z,2.80
2018-12-09T02:37:50.388Z,2.27
2018-12-09T02:39:53.607Z,2.63
2018-12-09T02:41:57.412Z,2.03
2018-12-09T02:44:02.064Z,2.87
2018-12-09T02:46:05.709Z,2.13
2018-12-09T02:48:09.225Z,2.10
2018-12-09T02:50:12.450Z,2.73
2018-12-09T02:52:15.746Z,2.00
2018-12-09T02:54:19.135Z,2.40
2018-12-09T02:56:22.487Z,1.90
2018-12-09T02:58:26.025Z,1.83
2018-12-09T03:00:31.576Z,2.43
2018-12-09T03:02:34.941Z,2.73
2018-12-09T03:04:38.194Z,2.00
2018-12-09T03:06:41.425Z,1.87
2018-12-09T03:08:44.793Z,1.30
2018-12-09T03:10:48.218Z,1.80
2018-12-09T03:12:51.502Z,1.83
2018-12-09T03:14:54.925Z,2.10
2018-12-09T03:16:58.615Z,1.93
2018-12-09T03:19:02.450Z,1.30
2018-12-09T03:21:06.231Z,2.00
2018-12-09T03:23:09.769Z,2.17
2018-12-09T03:25:13.290Z,1.70
2018-12-09T03:27:16.503Z,1.63
2018-12-09T03:29:19.724Z,1.80
2018-12-09T03:31:23.029Z,1.83
2018-12-09T03:33:26.355Z,1.50
2018-12-09T03:35:30.454Z,1.97
2018-12-09T03:37:34.295Z,2.00
2018-12-09T03:39:37.577Z,1.80
2018-12-09T03:41:40.968Z,2.10
2018-12-09T03:43:44.258Z,1.53
2018-12-09T03:45:47.586Z,1.53
2018-12-09T03:47:50.729Z,1.57
2018-12-09T03:49:54.005Z,1.40
2018-12-09T03:51:57.668Z,1.70
2018-12-09T03:54:01.469Z,1.67
2018-12-09T03:56:04.918Z,1.70
2018-12-09T03:58:08.225Z,1.63
2018-12-09T04:00:11.542Z,2.00
2018-12-09T04:02:15.553Z,1.63
2018-12-09T04:04:19.075Z,1.90
2018-12-09T04:06:22.302Z,1.30
2018-12-09T04:08:25.310Z,1.77
2018-12-09T04:10:29.205Z,2.53
2018-12-09T04:12:32.876Z,2.07
2018-12-09T04:14:36.443Z,2.53
2018-12-09T04:16:40.478Z,1.83
2018-12-09T04:18:43.817Z,2.10
2018-12-09T04:20:47.050Z,1.80
2018-12-09T04:22:50.538Z,2.03
2018-12-09T04:24:53.677Z,1.60
2018-12-09T04:26:56.939Z,1.83
2018-12-09T04:29:01.026Z,1.70
2018-12-09T04:31:04.578Z,1.33
2018-12-09T04:33:07.967Z,1.40
2018-12-09T04:35:11.263Z,1.50
2018-12-09T04:37:14.179Z,1.20
2018-12-09T04:39:17.385Z,1.73
2018-12-09T04:41:20.296Z,1.60
2018-12-09T04:43:23.901Z,1.63
2018-12-09T04:45:27.154Z,1.53
2018-12-09T04:47:31.226Z,1.30
2018-12-09T04:49:34.814Z,0.90
2018-12-09T04:51:49.321Z,1.20
2018-12-09T04:53:52.810Z,1.30
2018-12-09T04:55:55.942Z,1.23
2018-12-09T04:58:00.196Z,1.27
2018-12-09T05:00:15.698Z,0.80
2018-12-09T05:02:19.215Z,1.20
2018-12-09T05:04:22.751Z,1.40
2018-12-09T05:06:26.071Z,1.80
2018-12-09T05:08:29.638Z,1.87
2018-12-09T05:10:33.170Z,1.60
2018-12-09T05:12:36.597Z,1.57
2018-12-09T05:14:40.202Z,1.47
2018-12-09T05:16:43.530Z,1.63
2018-12-09T05:18:46.765Z,1.27
2018-12-09T05:20:49.669Z,1.23
2018-12-09T05:22:53.540Z,1.30
2018-12-09T05:24:57.078Z,1.73
2018-12-09T05:27:00.907Z,1.60
2018-12-09T05:29:04.242Z,1.23
2018-12-09T05:31:07.718Z,1.57
2018-12-09T05:33:10.701Z,1.63
2018-12-09T05:35:14.359Z,1.70
2018-12-09T05:37:17.605Z,1.93
2018-12-09T05:39:20.757Z,1.37
2018-12-09T05:41:24.009Z,1.03
2018-12-09T05:43:27.240Z,1.43
2018-12-09T05:45:31.626Z,1.40
2018-12-09T05:47:35.254Z,1.30
2018-12-09T05:49:38.418Z,2.20
2018-12-09T05:51:41.781Z,1.40
2018-12-09T05:53:45.018Z,1.80
2018-12-09T05:55:48.526Z,1.67
2018-12-09T05:57:51.838Z,1.60
2018-12-09T05:59:55.145Z,1.83
2018-12-09T06:02:09.878Z,1.40
2018-12-09T06:04:13.425Z,1.60
2018-12-09T06:06:17.166Z,1.30
2018-12-09T06:08:20.305Z,1.87
2018-12-09T06:10:23.535Z,1.85
2018-12-09T06:12:26.886Z,2.03
2018-12-09T06:14:30.722Z,1.77
2018-12-09T06:16:34.167Z,1.67
2018-12-09T06:18:38.062Z,1.60
2018-12-09T06:20:41.426Z,1.70
2018-12-09T06:22:44.653Z,1.73
2018-12-09T06:24:47.826Z,2.10
2018-12-09T06:26:52.047Z,2.20
2018-12-09T06:28:55.303Z,2.40
2018-12-09T06:30:58.853Z,1.80
2018-12-09T06:33:02.568Z,1.83
2018-12-09T06:35:06.197Z,2.00
2018-12-09T06:37:09.607Z,1.70
2018-12-09T06:39:12.504Z,1.63
2018-12-09T06:41:15.637Z,1.30
2018-12-09T06:43:19.438Z,1.93
2018-12-09T06:45:22.809Z,1.87
2018-12-09T06:47:26.451Z,1.67
2018-12-09T06:49:29.758Z,2.00
2018-12-09T06:51:33.303Z,1.60
2018-12-09T06:53:36.446Z,2.10
2018-12-09T06:55:39.907Z,1.80
2018-12-09T06:57:42.966Z,1.50
2018-12-09T06:59:46.338Z,1.80
2018-12-09T07:01:49.590Z,1.63
2018-12-09T07:03:52.730Z,1.80
2018-12-09T07:05:56.514Z,1.50
2018-12-09T07:08:00.144Z,1.93
2018-12-09T07:10:04.567Z,1.90
2018-12-09T07:12:08.038Z,1.93
2018-12-09T07:14:11.774Z,2.03
2018-12-09T07:16:15.181Z,1.70
2018-12-09T07:18:18.482Z,1.60
2018-12-09T07:20:21.747Z,1.70
2018-12-09T07:22:24.980Z,2.10
2018-12-09T07:24:28.354Z,1.70
2018-12-09T07:26:32.089Z,2.03
2018-12-09T07:28:35.832Z,1.40
2018-12-09T07:30:38.938Z,1.73
2018-12-09T07:32:42.319Z,2.67
2018-12-09T07:34:45.542Z,1.50
2018-12-09T07:36:48.803Z,1.70
2018-12-09T07:38:51.865Z,1.80
2018-12-09T07:40:55.019Z,2.23
2018-12-09T07:42:58.366Z,2.30
2018-12-09T07:45:02.289Z,1.60
2018-12-09T07:47:05.650Z,1.93
2018-12-09T07:49:09.808Z,1.60
2018-12-09T07:51:13.062Z,2.40
2018-12-09T07:53:16.278Z,1.80
2018-12-09T07:55:19.421Z,2.40
2018-12-09T07:57:22.435Z,2.33
2018-12-09T07:59:25.815Z,1.57
2018-12-09T08:01:29.058Z,1.90
2018-12-09T08:03:32.541Z,2.87
2018-12-09T08:05:35.822Z,2.03
2018-12-09T08:07:39.488Z,1.87
2018-12-09T08:09:43.570Z,2.20
2018-12-09T08:11:47.719Z,1.90
2018-12-09T08:13:50.890Z,2.43
2018-12-09T08:15:54.066Z,2.00
2018-12-09T08:17:57.214Z,2.10
2018-12-09T08:20:01.004Z,2.00
2018-12-09T08:22:04.578Z,2.10
2018-12-09T08:24:07.849Z,1.77
2018-12-09T08:26:11.326Z,2.10
2018-12-09T08:28:14.481Z,2.17
2018-12-09T08:30:17.786Z,2.00
2018-12-09T08:32:20.926Z,2.00
2018-12-09T08:34:24.094Z,2.10
2018-12-09T08:36:27.254Z,1.90
2018-12-09T08:38:30.868Z,2.00
2018-12-09T08:40:34.918Z,2.53
2018-12-09T08:42:38.253Z,2.17
2018-12-09T08:44:41.566Z,1.87
2018-12-09T08:46:44.729Z,2.10
2018-12-09T08:48:47.893Z,1.80
2018-12-09T08:50:51.301Z,1.90
2018-12-09T08:52:54.947Z,2.00
2018-12-09T08:54:58.085Z,2.00
2018-12-09T08:57:01.761Z,2.23
2018-12-09T08:59:05.786Z,2.17
2018-12-09T09:01:09.101Z,2.43
2018-12-09T09:03:12.350Z,1.87
2018-12-09T09:05:15.574Z,2.00
2018-12-09T09:07:18.721Z,2.40
2018-12-09T09:09:22.348Z,2.40
2018-12-09T09:11:26.010Z,2.70
2018-12-09T09:13:29.152Z,1.97
2018-12-09T09:15:32.922Z,2.63
2018-12-09T09:17:36.317Z,2.10
2018-12-09T09:19:39.344Z,2.30
2018-12-09T09:21:42.674Z,2.50
2018-12-09T09:23:45.834Z,2.63
2018-12-09T09:25:48.986Z,2.50
2018-12-09T09:27:52.217Z,2.63
2018-12-09T09:29:55.350Z,2.27
2018-12-09T09:31:58.586Z,2.53
2018-12-09T09:34:02.712Z,2.50
2018-12-09T09:36:06.253Z,2.37
2018-12-09T09:38:09.733Z,2.07
2018-12-09T09:40:12.985Z,2.07
2018-12-09T09:42:16.218Z,1.50
2018-12-09T09:44:19.390Z,1.60
2018-12-09T09:46:22.535Z,1.83
2018-12-09T09:48:25.679Z,2.23
2018-12-09T09:50:28.822Z,1.60
2018-12-09T09:52:32.742Z,1.87
2018-12-09T09:54:35.788Z,1.63
2018-12-09T09:56:38.754Z,1.90
2018-12-09T09:58:42.455Z,1.70
2018-12-09T10:00:45.807Z,1.80
2018-12-09T10:02:49.131Z,1.30
2018-12-09T10:04:52.343Z,2.13
2018-12-09T10:06:55.497Z,1.33
2018-12-09T10:08:58.626Z,1.17
2018-12-09T10:11:02.507Z,1.90
2018-12-09T10:13:06.073Z,1.87
2018-12-09T10:15:09.470Z,2.00
2018-12-09T10:17:12.666Z,1.90
2018-12-09T10:19:16.005Z,2.20
2018-12-09T10:21:19.309Z,1.50
2018-12-09T10:23:22.535Z,0.70
2018-12-09T10:25:25.811Z,1.57
2018-12-09T10:27:29.141Z,1.20
2018-12-09T10:29:32.749Z,1.53
2018-12-09T10:31:36.182Z,1.77
2018-12-09T10:33:39.658Z,0.90
2018-12-09T10:35:42.914Z,1.20
2018-12-09T10:37:46.146Z,1.23
2018-12-09T10:39:49.367Z,1.00
2018-12-09T10:41:52.505Z,2.00
2018-12-09T10:43:55.834Z,1.57
2018-12-09T10:45:59.195Z,1.57
2018-12-09T10:48:02.291Z,1.80
2018-12-09T10:50:05.934Z,1.40
2018-12-09T10:52:09.314Z,1.60
2018-12-09T10:54:12.976Z,1.40
2018-12-09T10:56:16.146Z,1.53
2018-12-09T10:58:19.319Z,1.70
2018-12-09T11:00:28.082Z,1.20
2018-12-09T11:02:31.229Z,1.40
2018-12-09T11:04:34.661Z,1.07
2018-12-09T11:06:38.239Z,1.30
2018-12-09T11:08:44.009Z,1.30
2018-12-09T11:10:47.154Z,0.70
2018-12-09T11:12:50.614Z,0.70
2018-12-09T11:14:54.007Z,0.80
2018-12-09T11:16:57.166Z,1.27
2018-12-09T11:19:00.406Z,1.40
2018-12-09T11:21:04.484Z,1.53
2018-12-09T11:23:07.834Z,1.80
2018-12-09T11:25:10.810Z,1.87
2018-12-09T11:27:14.610Z,2.20
2018-12-09T11:29:17.841Z,2.43
2018-12-09T11:31:21.075Z,2.13
2018-12-09T11:33:24.303Z,1.93
2018-12-09T11:35:27.858Z,1.23
2018-12-09T11:37:30.973Z,1.80
2018-12-09T11:39:35.304Z,1.90
2018-12-09T11:41:38.584Z,2.13
2018-12-09T11:43:41.778Z,2.20
2018-12-09T11:45:45.670Z,2.10
2018-12-09T11:47:48.939Z,2.20
2018-12-09T11:49:52.110Z,1.80
2018-12-09T11:51:55.302Z,1.70
2018-12-09T11:53:58.486Z,1.50
2018-12-09T11:56:06.349Z,1.90
2018-12-09T11:58:09.778Z,1.40
2018-12-09T12:00:14.222Z,0.50
2018-12-09T12:02:20.109Z,0.77
2018-12-09T12:04:22.779Z,0.83
2018-12-09T12:06:26.022Z,0.70
2018-12-09T12:08:29.169Z,0.90
2018-12-09T12:10:32.485Z,0.70
2018-12-09T12:12:36.098Z,0.60
2018-12-09T12:14:39.522Z,0.97
2018-12-09T12:16:43.750Z,0.73
2018-12-09T12:18:46.923Z,1.00
2018-12-09T12:20:50.065Z,0.60
2018-12-09T12:22:53.258Z,1.00
2018-12-09T12:24:56.462Z,0.90
2018-12-09T12:26:59.850Z,0.87
2018-12-09T12:29:03.721Z,0.80
2018-12-09T12:31:07.686Z,1.13
2018-12-09T12:33:10.975Z,0.93
2018-12-09T12:35:14.382Z,0.93
2018-12-09T12:37:17.938Z,0.93
2018-12-09T12:39:21.074Z,1.10
2018-12-09T12:41:23.985Z,0.70
2018-12-09T12:43:27.253Z,0.70
2018-12-09T12:45:30.486Z,1.17
2018-12-09T12:47:34.923Z,1.00
2018-12-09T12:49:38.382Z,0.90
2018-12-09T12:51:41.890Z,0.77
2018-12-09T12:53:45.039Z,1.20
2018-12-09T12:55:48.009Z,1.17
2018-12-09T12:57:51.174Z,0.90
2018-12-09T12:59:54.466Z,0.90
2018-12-09T13:01:57.618Z,0.93
2018-12-09T13:04:00.757Z,1.10
2018-12-09T13:06:04.362Z,1.30
2018-12-09T13:08:08.822Z,1.20
2018-12-09T13:10:14.206Z,1.10
2018-12-09T13:12:18.157Z,1.07
2018-12-09T13:14:21.313Z,1.20
2018-12-09T13:16:25.338Z,1.03
2018-12-09T13:18:30.287Z,1.30
2018-12-09T13:20:34.198Z,1.10
2018-12-09T13:22:37.705Z,1.10
2018-12-09T13:24:41.535Z,1.53
2018-12-09T13:26:44.960Z,1.47
2018-12-09T13:28:48.530Z,1.10
2018-12-09T13:30:51.869Z,1.30
2018-12-09T13:32:55.058Z,1.13
2018-12-09T13:34:58.456Z,1.70
2018-12-09T13:37:01.466Z,1.43
2018-12-09T13:39:06.716Z,1.30
2018-12-09T13:41:11.195Z,1.13
2018-12-09T13:43:14.786Z,1.60
2018-12-09T13:45:18.056Z,1.60
2018-12-09T13:47:21.198Z,1.30
2018-12-09T13:49:24.606Z,0.90
